createdAt,value
2018-03-23T00:00:03.080Z,9.30
2018-03-23T00:02:30.040Z,9.82
2018-03-23T00:04:57.094Z,9.55
2018-03-23T00:07:24.084Z,9.95
2018-03-23T00:09:51.172Z,10.30
2018-03-23T00:12:18.541Z,10.57
2018-03-23T00:14:45.455Z,10.57
2018-03-23T00:17:12.413Z,10.07
2018-03-23T00:19:39.403Z,10.85
2018-03-23T00:22:06.373Z,9.75
2018-03-23T00:24:33.411Z,10.00
2018-03-23T00:27:00.438Z,11.07
2018-03-23T00:29:27.458Z,9.90
2018-03-23T00:31:54.447Z,10.48
2018-03-23T00:34:21.541Z,10.93
2018-03-23T00:36:48.516Z,11.15
2018-03-23T00:39:15.672Z,10.68
2018-03-23T00:41:42.749Z,11.63
2018-03-23T00:44:09.573Z,10.52
2018-03-23T00:46:36.543Z,11.38
2018-03-23T00:49:03.569Z,10.52
2018-03-23T00:51:30.560Z,11.45
2018-03-23T00:53:57.518Z,9.77
2018-03-23T00:56:24.478Z,11.23
2018-03-23T00:58:51.497Z,11.45
2018-03-23T01:01:18.418Z,10.93
2018-03-23T01:03:45.391Z,10.38
2018-03-23T01:06:12.510Z,10.60
2018-03-23T01:08:39.451Z,10.65
2018-03-23T01:11:06.458Z,10.27
2018-03-23T01:13:33.398Z,9.65
2018-03-23T01:16:00.462Z,10.50
2018-03-23T01:18:27.392Z,10.15
2018-03-23T01:20:54.629Z,10.45
2018-03-23T01:23:21.644Z,10.50
2018-03-23T01:25:48.724Z,10.25
2018-03-23T01:28:15.891Z,10.15
2018-03-23T01:30:42.856Z,10.98
2018-03-23T01:33:09.906Z,10.40
2018-03-23T01:35:36.895Z,10.35
2018-03-23T01:38:03.894Z,10.27
2018-03-23T01:40:30.856Z,10.77
2018-03-23T01:42:57.778Z,10.10
2018-03-23T01:45:24.787Z,10.50
2018-03-23T01:47:51.784Z,11.38
2018-03-23T01:50:18.744Z,10.80
2018-03-23T01:52:45.658Z,10.43
2018-03-23T01:55:12.602Z,10.85
2018-03-23T01:57:39.710Z,10.60
2018-03-23T02:00:06.638Z,10.43
2018-03-23T02:02:33.607Z,10.13
2018-03-23T02:05:00.592Z,11.57
2018-03-23T02:07:27.580Z,10.85
2018-03-23T02:09:54.597Z,11.30
2018-03-23T02:12:21.963Z,11.27
2018-03-23T02:14:49.016Z,10.65
2018-03-23T02:17:16.953Z,11.15
2018-03-23T02:19:43.948Z,11.38
2018-03-23T02:22:10.822Z,11.18
2018-03-23T02:24:37.960Z,10.80
2018-03-23T02:27:05.142Z,11.65
2018-03-23T02:29:32.114Z,11.40
2018-03-23T02:31:59.271Z,11.73
2018-03-23T02:34:26.154Z,11.12
2018-03-23T02:36:53.151Z,10.60
2018-03-23T02:39:20.353Z,12.77
2018-03-23T02:41:47.298Z,11.70
2018-03-23T02:44:14.351Z,12.48
2018-03-23T02:46:41.508Z,12.10
2018-03-23T02:49:08.573Z,12.82
2018-03-23T02:51:35.603Z,12.95
2018-03-23T02:54:02.678Z,14.10
2018-03-23T02:56:29.554Z,13.25
2018-03-23T02:58:56.479Z,13.00
2018-03-23T03:01:23.642Z,14.00
2018-03-23T03:03:50.833Z,13.38
2018-03-23T03:06:17.871Z,13.32
2018-03-23T03:08:44.918Z,13.88
2018-03-23T03:11:11.952Z,14.20
2018-03-23T03:13:38.910Z,13.77
2018-03-23T03:16:06.030Z,14.68
2018-03-23T03:18:32.997Z,14.20
2018-03-23T03:20:59.969Z,14.73
2018-03-23T03:23:26.892Z,14.63
2018-03-23T03:25:53.916Z,14.38
2018-03-23T03:28:21.037Z,14.80
2018-03-23T03:30:48.286Z,14.55
2018-03-23T03:33:15.230Z,14.35
2018-03-23T03:35:42.174Z,14.57
2018-03-23T03:38:09.185Z,15.30
2018-03-23T03:40:36.258Z,14.98
2018-03-23T03:43:03.318Z,15.70
2018-03-23T03:45:30.356Z,14.55
2018-03-23T03:47:57.397Z,15.80
2018-03-23T03:50:24.442Z,16.15
2018-03-23T03:52:51.383Z,16.80
2018-03-23T03:55:18.483Z,16.27
2018-03-23T03:57:45.392Z,16.00
2018-03-23T04:00:12.330Z,16.15
2018-03-23T04:02:39.323Z,16.45
2018-03-23T04:05:06.301Z,15.77
2018-03-23T04:07:33.252Z,16.30
2018-03-23T04:10:00.228Z,15.35
2018-03-23T04:12:27.131Z,16.35
2018-03-23T04:14:54.124Z,15.75
2018-03-23T04:17:21.110Z,15.90
2018-03-23T04:19:48.001Z,16.67
2018-03-23T04:22:15.072Z,16.05
2018-03-23T04:24:42.146Z,16.17
2018-03-23T04:27:09.136Z,16.10
2018-03-23T04:29:36.280Z,16.48
2018-03-23T04:32:03.270Z,16.70
2018-03-23T04:34:30.264Z,17.65
2018-03-23T04:36:57.286Z,17.48
2018-03-23T04:39:24.317Z,16.85
2018-03-23T04:41:51.171Z,16.73
2018-03-23T04:44:18.290Z,17.90
2018-03-23T04:46:45.321Z,17.85
2018-03-23T04:49:12.211Z,18.80
2018-03-23T04:51:39.153Z,18.90
2018-03-23T04:54:06.198Z,18.08
2018-03-23T04:56:33.164Z,18.10
2018-03-23T04:59:00.202Z,18.15
2018-03-23T05:01:27.235Z,18.95
2018-03-23T05:03:54.135Z,18.90
2018-03-23T05:06:21.226Z,19.23
2018-03-23T05:08:48.338Z,18.40
2018-03-23T05:11:15.403Z,18.00
2018-03-23T05:13:42.432Z,18.87
2018-03-23T05:16:09.464Z,18.10
2018-03-23T05:18:36.422Z,19.73
2018-03-23T05:21:03.510Z,19.60
2018-03-23T05:23:30.385Z,19.67
2018-03-23T05:25:57.406Z,19.08
2018-03-23T05:28:25.529Z,19.17
2018-03-23T05:30:52.525Z,19.20
2018-03-23T05:33:19.630Z,19.52
2018-03-23T05:35:46.551Z,20.10
2018-03-23T05:38:14.652Z,18.58
2018-03-23T05:40:42.867Z,20.33
2018-03-23T05:43:10.559Z,19.15
2018-03-23T05:45:37.556Z,19.65
2018-03-23T05:48:04.598Z,18.42
2018-03-23T05:50:31.468Z,20.15
2018-03-23T05:52:58.463Z,19.02
2018-03-23T05:55:25.472Z,19.27
2018-03-23T05:57:53.186Z,20.15
2018-03-23T06:00:20.075Z,18.80
2018-03-23T06:02:47.053Z,20.58
2018-03-23T06:05:15.927Z,19.62
2018-03-23T06:07:42.884Z,19.33
2018-03-23T06:10:11.920Z,19.17
2018-03-23T06:12:41.222Z,19.42
2018-03-23T06:15:09.831Z,19.08
2018-03-23T06:17:37.498Z,18.90
2018-03-23T06:20:06.633Z,20.67
2018-03-23T06:22:36.435Z,19.12
2018-03-23T06:25:04.584Z,18.83
2018-03-23T06:27:31.676Z,20.05
2018-03-23T06:29:58.917Z,18.40
2018-03-23T06:32:26.119Z,20.27
2018-03-23T06:34:52.992Z,20.12
2018-03-23T06:37:20.189Z,20.35
2018-03-23T06:39:47.447Z,18.75
2018-03-23T06:42:14.770Z,19.00
2018-03-23T06:44:41.946Z,20.42
2018-03-23T06:47:08.948Z,21.37
2018-03-23T06:49:36.223Z,20.88
2018-03-23T06:52:03.099Z,21.12
2018-03-23T06:54:30.056Z,19.87
2018-03-23T06:56:57.215Z,19.58
2018-03-23T06:59:24.068Z,19.98
2018-03-23T07:01:51.099Z,19.98
2018-03-23T07:04:17.965Z,20.85
2018-03-23T07:06:44.932Z,20.23
2018-03-23T07:09:11.828Z,20.92
2018-03-23T07:11:38.733Z,20.30
2018-03-23T07:14:05.938Z,20.25
2018-03-23T07:16:32.935Z,19.25
2018-03-23T07:18:59.819Z,18.98
2018-03-23T07:21:27.387Z,19.58
2018-03-23T07:23:54.349Z,21.12
2018-03-23T07:26:21.399Z,20.85
2018-03-23T07:28:48.416Z,20.45
2018-03-23T07:31:15.399Z,19.77
2018-03-23T07:33:42.466Z,20.58
2018-03-23T07:36:09.392Z,20.05
2018-03-23T07:38:36.409Z,20.62
2018-03-23T07:41:04.666Z,19.98
2018-03-23T07:43:31.614Z,19.80
2018-03-23T07:45:58.545Z,20.27
2018-03-23T07:48:25.596Z,20.48
2018-03-23T07:50:52.719Z,20.35
2018-03-23T07:53:19.655Z,20.37
2018-03-23T07:55:46.583Z,21.00
2018-03-23T07:58:13.535Z,20.25
2018-03-23T08:00:41.706Z,19.87
2018-03-23T08:03:09.395Z,20.15
2018-03-23T08:05:36.635Z,20.23
2018-03-23T08:08:04.103Z,19.95
2018-03-23T08:10:31.555Z,19.37
2018-03-23T08:12:58.844Z,19.42
2018-03-23T08:15:26.378Z,18.05
2018-03-23T08:17:53.363Z,19.17
2018-03-23T08:20:20.427Z,18.87
2018-03-23T08:22:47.320Z,19.60
2018-03-23T08:25:14.171Z,19.03
2018-03-23T08:27:41.053Z,18.40
2018-03-23T08:30:07.901Z,19.37
2018-03-23T08:32:34.793Z,19.27
2018-03-23T08:35:01.763Z,17.43
2018-03-23T08:37:28.665Z,17.43
2018-03-23T08:39:55.568Z,17.83
2018-03-23T08:42:22.568Z,17.73
2018-03-23T08:44:49.684Z,17.87
2018-03-23T08:47:16.598Z,17.80
2018-03-23T08:49:43.568Z,17.53
2018-03-23T08:52:10.452Z,17.43
2018-03-23T08:54:37.375Z,18.17
2018-03-23T08:57:04.368Z,17.27
2018-03-23T08:59:34.758Z,17.70
2018-03-23T09:02:01.807Z,17.60
2018-03-23T09:04:29.032Z,18.60
2018-03-23T09:06:56.255Z,19.00
2018-03-23T09:09:23.988Z,18.30
2018-03-23T09:11:51.297Z,18.20
2018-03-23T09:14:19.248Z,18.50
2018-03-23T09:16:47.533Z,17.03
2018-03-23T09:19:14.801Z,18.37
2018-03-23T09:21:42.281Z,17.47
2018-03-23T09:24:09.312Z,17.90
2018-03-23T09:26:36.396Z,18.47
2018-03-23T09:29:04.090Z,18.27
2018-03-23T09:31:31.268Z,16.17
2018-03-23T09:33:58.255Z,17.80
2018-03-23T09:36:25.232Z,18.00
2018-03-23T09:38:52.257Z,18.20
2018-03-23T09:41:19.864Z,18.63
2018-03-23T09:43:46.819Z,17.97
2018-03-23T09:46:13.903Z,19.57
2018-03-23T09:48:41.359Z,17.57
2018-03-23T09:51:08.818Z,18.17
2018-03-23T09:53:35.769Z,19.80
2018-03-23T09:56:03.153Z,19.03
2018-03-23T09:58:30.014Z,18.63
2018-03-23T10:00:57.308Z,19.57
2018-03-23T10:03:24.373Z,18.33
2018-03-23T10:05:51.362Z,19.03
2018-03-23T10:08:18.495Z,18.00
2018-03-23T10:10:45.778Z,19.00
2018-03-23T10:13:12.762Z,19.00
2018-03-23T10:15:39.851Z,18.63
2018-03-23T10:18:06.817Z,18.77
2018-03-23T10:20:33.823Z,19.77
2018-03-23T10:23:00.801Z,18.60
2018-03-23T10:25:28.086Z,19.27
2018-03-23T10:27:54.973Z,17.67
2018-03-23T10:30:22.247Z,18.53
2018-03-23T10:32:49.814Z,17.50
2018-03-23T10:35:16.901Z,18.77
2018-03-23T10:37:43.872Z,19.07
2018-03-23T10:40:10.758Z,17.83
2018-03-23T10:42:42.473Z,17.80
2018-03-23T10:45:09.804Z,16.23
2018-03-23T10:47:36.750Z,17.33
2018-03-23T10:50:03.577Z,16.67
2018-03-23T10:52:30.445Z,16.73
2018-03-23T10:54:57.371Z,16.67
2018-03-23T10:57:24.201Z,17.43
2018-03-23T10:59:51.058Z,17.03
2018-03-23T11:02:36.724Z,17.17
2018-03-23T11:05:03.680Z,15.27
2018-03-23T11:07:30.583Z,15.90
2018-03-23T11:09:57.605Z,15.23
2018-03-23T11:12:24.446Z,16.27
2018-03-23T11:14:51.331Z,16.30
2018-03-23T11:17:18.337Z,16.37
2018-03-23T11:19:45.386Z,16.53
2018-03-23T11:22:12.267Z,15.93
2018-03-23T11:24:39.215Z,14.77
2018-03-23T11:27:06.158Z,15.20
2018-03-23T11:29:33.028Z,15.50
2018-03-23T11:31:59.998Z,15.07
2018-03-23T11:34:26.836Z,14.77
2018-03-23T11:36:53.676Z,14.87
2018-03-23T11:39:20.592Z,14.90
2018-03-23T11:41:47.634Z,14.77
2018-03-23T11:44:14.528Z,15.03
2018-03-23T11:46:41.562Z,15.70
2018-03-23T11:49:08.687Z,15.43
2018-03-23T11:51:35.660Z,15.53
2018-03-23T11:54:02.534Z,15.40
2018-03-23T11:56:29.609Z,15.90
2018-03-23T11:58:56.553Z,14.07
2018-03-23T12:01:23.532Z,15.73
2018-03-23T12:03:50.387Z,14.27
2018-03-23T12:06:17.551Z,14.50
2018-03-23T12:08:44.467Z,14.07
2018-03-23T12:11:11.363Z,15.43
2018-03-23T12:13:38.261Z,14.20
2018-03-23T12:16:05.201Z,14.43
2018-03-23T12:18:32.051Z,14.00
2018-03-23T12:20:59.031Z,13.50
2018-03-23T12:23:25.892Z,13.63
2018-03-23T12:25:52.879Z,14.13
2018-03-23T12:28:20.097Z,13.40
2018-03-23T12:30:47.307Z,13.27
2018-03-23T12:33:14.245Z,12.47
2018-03-23T12:35:41.147Z,12.10
2018-03-23T12:38:08.044Z,12.33
2018-03-23T12:40:34.902Z,12.73
2018-03-23T12:43:01.837Z,13.47
2018-03-23T12:45:28.812Z,12.90
2018-03-23T12:47:57.624Z,13.50
2018-03-23T12:50:24.601Z,12.40
2018-03-23T12:52:51.932Z,13.97
2018-03-23T12:55:18.965Z,12.57
2018-03-23T12:57:45.796Z,14.23
2018-03-23T13:00:12.818Z,14.50
2018-03-23T13:02:39.730Z,12.73
2018-03-23T13:05:06.906Z,11.00
2018-03-23T13:07:33.743Z,10.50
2018-03-23T13:10:00.684Z,11.93
2018-03-23T13:12:27.608Z,12.57
2018-03-23T13:14:54.588Z,12.30
2018-03-23T13:17:22.488Z,13.00
2018-03-23T13:19:51.086Z,11.23
2018-03-23T13:22:18.531Z,13.03
2018-03-23T13:24:46.187Z,12.50
2018-03-23T13:27:13.314Z,11.47
2018-03-23T13:29:40.374Z,13.27
2018-03-23T13:32:07.692Z,12.03
2018-03-23T13:34:34.767Z,11.70
2018-03-23T13:37:03.487Z,14.20
2018-03-23T13:39:36.976Z,17.47
2018-03-23T13:42:05.577Z,17.03
2018-03-23T13:44:34.287Z,18.20
2018-03-23T13:47:02.994Z,18.83
2018-03-23T13:49:31.354Z,17.50
2018-03-23T13:52:01.197Z,18.63
2018-03-23T13:54:29.530Z,16.90
2018-03-23T13:56:57.035Z,17.73
2018-03-23T13:59:30.437Z,20.33
2018-03-23T14:01:57.574Z,19.47
2018-03-23T14:04:24.454Z,17.03
2018-03-23T14:06:51.770Z,17.50
2018-03-23T14:09:19.287Z,19.03
2018-03-23T14:11:48.239Z,17.47
2018-03-23T14:14:16.222Z,16.23
2018-03-23T14:16:48.278Z,17.73
2018-03-23T14:19:15.782Z,18.40
2018-03-23T14:21:42.957Z,17.90
2018-03-23T14:24:09.828Z,18.23
2018-03-23T14:26:36.951Z,14.50
2018-03-23T14:29:03.885Z,13.10
2018-03-23T14:31:31.058Z,12.80
2018-03-23T14:33:58.912Z,12.03
2018-03-23T14:36:26.200Z,11.37
2018-03-23T14:38:53.233Z,11.80
2018-03-23T14:41:20.395Z,11.77
2018-03-23T14:43:47.340Z,10.27
2018-03-23T14:46:14.498Z,12.07
2018-03-23T14:48:41.389Z,11.50
2018-03-23T14:51:08.545Z,11.73
2018-03-23T14:53:35.453Z,11.97
2018-03-23T14:56:02.598Z,11.57
2018-03-23T14:58:35.097Z,11.70
2018-03-23T15:01:02.221Z,11.80
2018-03-23T15:03:29.151Z,11.60
2018-03-23T15:05:57.546Z,11.47
2018-03-23T15:08:24.620Z,11.00
2018-03-23T15:10:52.163Z,11.33
2018-03-23T15:13:19.183Z,11.70
2018-03-23T15:15:46.861Z,11.33
2018-03-23T15:18:13.767Z,11.23
2018-03-23T15:20:40.705Z,10.67
2018-03-23T15:23:07.726Z,12.07
2018-03-23T15:25:34.644Z,11.30
2018-03-23T15:28:01.556Z,11.60
2018-03-23T15:30:28.402Z,11.93
2018-03-23T15:32:55.302Z,11.10
2018-03-23T15:35:22.261Z,11.27
2018-03-23T15:37:49.223Z,11.27
2018-03-23T15:40:16.114Z,12.60
2018-03-23T15:42:43.144Z,11.53
2018-03-23T15:45:10.416Z,11.40
2018-03-23T15:47:37.588Z,12.40
2018-03-23T15:50:04.436Z,12.60
2018-03-23T15:52:32.388Z,12.97
2018-03-23T15:54:59.882Z,12.60
2018-03-23T15:57:27.875Z,13.20
2018-03-23T15:59:55.893Z,13.17
2018-03-23T16:02:23.654Z,13.47
2018-03-23T16:04:52.463Z,14.07
2018-03-23T16:07:19.538Z,12.73
2018-03-23T16:09:46.813Z,13.50
2018-03-23T16:12:14.331Z,13.23
2018-03-23T16:14:41.319Z,13.20
2018-03-23T16:17:08.250Z,13.13
2018-03-23T16:19:35.467Z,13.07
2018-03-23T16:22:02.446Z,13.17
2018-03-23T16:24:29.686Z,12.33
2018-03-23T16:26:56.548Z,12.03
2018-03-23T16:29:23.809Z,11.50
2018-03-23T16:31:51.054Z,10.13
2018-03-23T16:34:18.259Z,9.70
2018-03-23T16:36:45.310Z,8.87
2018-03-23T16:39:12.190Z,8.47
2018-03-23T16:41:39.706Z,8.43
2018-03-23T16:44:07.018Z,8.50
2018-03-23T16:46:34.837Z,7.80
2018-03-23T16:49:02.328Z,7.93
2018-03-23T16:51:29.825Z,6.83
2018-03-23T16:53:56.908Z,7.23
2018-03-23T16:56:24.246Z,6.93
2018-03-23T16:58:52.821Z,7.00
2018-03-23T17:01:20.174Z,6.53
2018-03-23T17:03:48.705Z,6.20
2018-03-23T17:06:17.773Z,6.97
2018-03-23T17:08:45.032Z,5.87
2018-03-23T17:11:12.653Z,6.67
2018-03-23T17:13:40.048Z,6.47
2018-03-23T17:16:07.634Z,6.50
2018-03-23T17:18:35.079Z,6.93
2018-03-23T17:21:02.835Z,6.60
2018-03-23T17:23:30.148Z,7.10
2018-03-23T17:25:58.074Z,6.97
2018-03-23T17:28:26.046Z,7.60
2018-03-23T17:30:54.345Z,7.00
2018-03-23T17:33:21.543Z,6.97
2018-03-23T17:35:48.824Z,8.00
2018-03-23T17:38:16.717Z,7.20
2018-03-23T17:40:46.381Z,7.60
2018-03-23T17:43:13.558Z,8.07
2018-03-23T17:45:41.649Z,8.37
2018-03-23T17:48:09.903Z,8.30
2018-03-23T17:50:36.785Z,7.97
2018-03-23T17:53:03.629Z,8.47
2018-03-23T17:55:35.891Z,8.43
2018-03-23T17:58:02.792Z,7.90
2018-03-23T18:00:30.568Z,8.40
2018-03-23T18:02:57.483Z,9.10
2018-03-23T18:05:24.421Z,8.60
2018-03-23T18:07:51.484Z,7.97
2018-03-23T18:10:18.455Z,8.43
2018-03-23T18:12:45.505Z,8.33
2018-03-23T18:15:13.727Z,8.87
2018-03-23T18:17:41.426Z,8.90
2018-03-23T18:20:08.459Z,9.37
2018-03-23T18:22:35.406Z,9.00
2018-03-23T18:25:02.378Z,8.90
2018-03-23T18:27:29.338Z,9.33
2018-03-23T18:29:56.321Z,9.47
2018-03-23T18:32:23.288Z,9.40
2018-03-23T18:34:50.224Z,9.40
2018-03-23T18:37:17.225Z,9.50
2018-03-23T18:39:44.134Z,8.87
2018-03-23T18:42:11.057Z,9.67
2018-03-23T18:44:37.993Z,10.10
2018-03-23T18:47:04.912Z,10.83
2018-03-23T18:49:31.827Z,10.67
2018-03-23T18:51:58.750Z,10.53
2018-03-23T18:54:25.682Z,10.87
2018-03-23T18:56:52.765Z,11.10
2018-03-23T18:59:19.673Z,11.03
2018-03-23T19:01:46.877Z,11.10
2018-03-23T19:04:13.805Z,11.23
2018-03-23T19:06:40.814Z,21.77
2018-03-23T19:09:07.891Z,14.17
2018-03-23T19:11:34.955Z,13.80
2018-03-23T19:14:01.802Z,12.60
2018-03-23T19:16:29.166Z,12.00
2018-03-23T19:18:56.030Z,11.93
2018-03-23T19:21:23.094Z,12.37
2018-03-23T19:23:50.053Z,13.17
2018-03-23T19:26:17.238Z,12.90
2018-03-23T19:28:44.393Z,12.77
2018-03-23T19:31:11.567Z,12.63
2018-03-23T19:33:38.580Z,12.57
2018-03-23T19:36:06.522Z,12.77
2018-03-23T19:38:35.059Z,12.03
2018-03-23T19:41:02.133Z,12.80
2018-03-23T19:43:29.300Z,12.80
2018-03-23T19:45:56.359Z,13.30
2018-03-23T19:48:23.379Z,13.73
2018-03-23T19:50:50.467Z,12.30
2018-03-23T19:53:17.373Z,12.10
2018-03-23T19:55:44.363Z,12.30
2018-03-23T19:58:11.348Z,11.80
2018-03-23T20:00:38.296Z,13.17
2018-03-23T20:03:05.311Z,13.53
2018-03-23T20:05:32.239Z,13.13
2018-03-23T20:07:59.175Z,13.07
2018-03-23T20:10:26.596Z,13.37
2018-03-23T20:12:53.622Z,13.73
2018-03-23T20:15:20.616Z,15.20
2018-03-23T20:17:54.449Z,13.35
2018-03-23T20:20:27.348Z,13.90
2018-03-23T20:22:54.324Z,14.25
2018-03-23T20:25:21.469Z,14.47
2018-03-23T20:27:54.224Z,14.07
2018-03-23T20:30:21.407Z,13.32
2018-03-23T20:32:48.555Z,13.37
2018-03-23T20:35:15.588Z,14.57
2018-03-23T20:37:42.533Z,14.97
2018-03-23T20:40:09.448Z,13.75
2018-03-23T20:42:36.497Z,14.45
2018-03-23T20:45:03.559Z,12.77
2018-03-23T20:47:31.859Z,13.30
2018-03-23T20:49:58.861Z,13.57
2018-03-23T20:52:25.818Z,13.70
2018-03-23T20:54:52.936Z,15.65
2018-03-23T20:57:19.984Z,17.85
2018-03-23T20:59:47.189Z,16.35
2018-03-23T21:02:14.381Z,15.10
2018-03-23T21:04:41.595Z,16.90
2018-03-23T21:07:08.698Z,15.40
2018-03-23T21:09:35.612Z,16.65
2018-03-23T21:12:02.875Z,22.45
2018-03-23T21:14:29.923Z,25.77
2018-03-23T21:16:56.928Z,18.05
2018-03-23T21:19:29.013Z,17.65
2018-03-23T21:21:56.506Z,15.55
2018-03-23T21:24:23.533Z,15.00
2018-03-23T21:26:50.500Z,16.05
2018-03-23T21:29:17.639Z,15.45
2018-03-23T21:31:44.795Z,14.68
2018-03-23T21:34:11.788Z,14.23
2018-03-23T21:36:38.812Z,14.27
2018-03-23T21:39:05.873Z,14.82
2018-03-23T21:41:33.091Z,14.15
2018-03-23T21:44:00.057Z,13.82
2018-03-23T21:46:27.074Z,13.45
2018-03-23T21:48:54.207Z,14.38
2018-03-23T21:51:21.256Z,15.07
2018-03-23T21:53:48.254Z,13.80
2018-03-23T21:56:15.407Z,13.80
2018-03-23T21:58:42.386Z,14.18
2018-03-23T22:01:09.541Z,13.68
2018-03-23T22:03:36.748Z,13.45
2018-03-23T22:06:03.771Z,14.40
2018-03-23T22:08:30.700Z,13.93
2018-03-23T22:10:58.087Z,15.02
2018-03-23T22:13:25.013Z,14.68
2018-03-23T22:15:52.141Z,14.30
2018-03-23T22:18:19.078Z,14.70
2018-03-23T22:20:46.053Z,15.00
2018-03-23T22:23:13.018Z,14.52
2018-03-23T22:25:40.021Z,15.20
2018-03-23T22:28:07.020Z,16.02
2018-03-23T22:30:34.052Z,14.80
2018-03-23T22:33:01.052Z,14.73
2018-03-23T22:35:27.988Z,15.75
2018-03-23T22:37:58.214Z,15.02
2018-03-23T22:40:25.668Z,16.23
2018-03-23T22:42:52.575Z,13.95
2018-03-23T22:45:19.594Z,15.68
2018-03-23T22:47:46.529Z,16.50
2018-03-23T22:50:13.508Z,15.63
2018-03-23T22:52:40.439Z,16.20
2018-03-23T22:55:07.293Z,15.73
2018-03-23T22:57:34.260Z,16.58
2018-03-23T23:00:01.241Z,16.25
2018-03-23T23:02:28.217Z,15.40
2018-03-23T23:04:55.410Z,15.38
2018-03-23T23:07:22.799Z,16.62
2018-03-23T23:09:49.774Z,16.37
2018-03-23T23:12:16.732Z,15.85
2018-03-23T23:14:43.673Z,16.62
2018-03-23T23:17:10.768Z,16.58
2018-03-23T23:19:37.863Z,18.27
2018-03-23T23:22:04.983Z,17.20
2018-03-23T23:24:31.875Z,17.95
2018-03-23T23:26:59.040Z,17.02
2018-03-23T23:29:26.040Z,16.98
2018-03-23T23:31:53.080Z,17.95
2018-03-23T23:34:20.210Z,17.33
2018-03-23T23:36:47.308Z,17.85
2018-03-23T23:39:14.292Z,17.80
2018-03-23T23:41:41.428Z,17.48
2018-03-23T23:44:08.609Z,18.00
2018-03-23T23:46:35.751Z,17.55
2018-03-23T23:49:02.686Z,17.45
2018-03-23T23:51:29.724Z,17.77
2018-03-23T23:53:56.688Z,17.80
2018-03-23T23:56:23.938Z,17.33
2018-03-23T23:58:50.992Z,17.75
